sensor_id;sensor_type;location;lat;lon;timestamp;temperature;humidity
13409;DHT22;6775;49.574;11.170;2024-01-15T00:01:03;-2.10;99.90
13409;DHT22;6775;49.574;11.170;2024-01-15T00:03:32;-2.10;99.90
13409;DHT22;6775;49.574;11.170;2024-01-15T00:06:00;-2.10;99.90
13409;DHT22;6775;49.574;11.170;2024-01-15T00:08:28;-2.10;99.90
13409;DHT22;6775;49.574;11.170;2024-01-15T00:10:57;-2.10;99.90
13409;DHT22;6775;49.574;11.170;2024-01-15T00:13:25;-2.20;99.90
13409;DHT22;6775;49.574;11.170;2024-01-15T00:15:53;-2.20;99.90
13409;DHT22;6775;49.574;11.170;2024-01-15T00:18:22;-2.20;99.90
13409;DHT22;6775;49.574;11.170;2024-01-15T00:20:51;-2.20;99.90
13409;DHT22;6775;49.574;11.170;2024-01-15T00:23:19;-2.20;99.90
13409;DHT22;6775;49.574;11.170;2024-01-15T00:25:47;-2.20;99.90
13409;DHT22;6775;49.574;11.170;2024-01-15T00:28:15;-2.20;99.90
13409;DHT22;6775;49.574;11.170;2024-01-15T00:30:44;-2.20;99.90
13409;DHT22;6775;49.574;11.170;2024-01-15T00:33:12;-2.10;99.90
13409;DHT22;6775;49.574;11.170;2024-01-15T00:35:43;-2.10;99.90
13409;DHT22;6775;49.574;11.170;2024-01-15T00:38:11;-2.10;99.90
13409;DHT22;6775;49.574;11.170;2024-01-15T00:40:39;-2.10;99.90
13409;DHT22;6775;49.574;11.170;2024-01-15T00:43:07;-2.10;99.90
13409;DHT22;6775;49.574;11.170;2024-01-15T00:45:35;-2.10;99.90
13409;DHT22;6775;49.574;11.170;2024-01-15T00:48:04;-2.10;99.90
13409;DHT22;6775;49.574;11.170;2024-01-15T00:50:33;-2.10;99.90
13409;DHT22;6775;49.574;11.170;2024-01-15T00:53:03;-2.20;99.90
13409;DHT22;6775;49.574;11.170;2024-01-15T00:55:31;-2.20;99.90
13409;DHT22;6775;49.574;11.170;2024-01-15T00:57:59;-2.20;99.90
13409;DHT22;6775;49.574;11.170;2024-01-15T01:00:27;-2.20;99.90
13409;DHT22;6775;49.574;11.170;2024-01-15T01:02:56;-2.30;99.90
13409;DHT22;6775;49.574;11.170;2024-01-15T01:05:24;-2.20;99.90
13409;DHT22;6775;49.574;11.170;2024-01-15T01:07:52;-2.20;99.90
13409;DHT22;6775;49.574;11.170;2024-01-15T01:10:21;-2.20;99.90
13409;DHT22;6775;49.574;11.170;2024-01-15T01:12:49;-2.20;99.90
13409;DHT22;6775;49.574;11.170;2024-01-15T01:15:18;-2.20;99.90
13409;DHT22;6775;49.574;11.170;2024-01-15T01:17:46;-2.10;99.90
13409;DHT22;6775;49.574;11.170;2024-01-15T01:20:15;-2.10;99.90
13409;DHT22;6775;49.574;11.170;2024-01-15T01:22:45;-2.10;99.90
13409;DHT22;6775;49.574;11.170;2024-01-15T01:25:13;-2.00;99.90
13409;DHT22;6775;49.574;11.170;2024-01-15T01:27:43;-2.00;99.90
13409;DHT22;6775;49.574;11.170;2024-01-15T01:30:11;-2.00;99.90
13409;DHT22;6775;49.574;11.170;2024-01-15T01:32:40;-2.00;99.90
13409;DHT22;6775;49.574;11.170;2024-01-15T01:35:08;-2.00;99.90
13409;DHT22;6775;49.574;11.170;2024-01-15T01:37:36;-2.00;99.90
13409;DHT22;6775;49.574;11.170;2024-01-15T01:40:06;-2.10;99.90
13409;DHT22;6775;49.574;11.170;2024-01-15T01:42:35;-2.00;99.90
13409;DHT22;6775;49.574;11.170;2024-01-15T01:45:05;-2.10;99.90
13409;DHT22;6775;49.574;11.170;2024-01-15T01:47:34;-2.10;99.90
13409;DHT22;6775;49.574;11.170;2024-01-15T01:50:03;-2.10;99.90
13409;DHT22;6775;49.574;11.170;2024-01-15T01:52:32;-2.10;99.90
13409;DHT22;6775;49.574;11.170;2024-01-15T01:55:02;-2.00;99.90
13409;DHT22;6775;49.574;11.170;2024-01-15T01:57:32;-1.50;99.90
13409;DHT22;6775;49.574;11.170;2024-01-15T02:00:04;-2.00;99.90
13409;DHT22;6775;49.574;11.170;2024-01-15T02:02:34;-2.00;99.90
13409;DHT22;6775;49.574;11.170;2024-01-15T02:05:04;-2.00;99.90
13409;DHT22;6775;49.574;11.170;2024-01-15T02:07:34;-2.00;99.90
13409;DHT22;6775;49.574;11.170;2024-01-15T02:10:03;-1.90;99.90
13409;DHT22;6775;49.574;11.170;2024-01-15T02:12:32;-1.90;99.90
13409;DHT22;6775;49.574;11.170;2024-01-15T02:15:01;-1.90;99.90
13409;DHT22;6775;49.574;11.170;2024-01-15T02:17:31;-1.90;99.90
13409;DHT22;6775;49.574;11.170;2024-01-15T02:19:59;-1.80;99.90
13409;DHT22;6775;49.574;11.170;2024-01-15T02:22:27;-1.80;99.90
13409;DHT22;6775;49.574;11.170;2024-01-15T02:24:57;-1.80;99.90
13409;DHT22;6775;49.574;11.170;2024-01-15T02:27:25;-1.90;99.90
13409;DHT22;6775;49.574;11.170;2024-01-15T02:29:54;-1.90;99.90
13409;DHT22;6775;49.574;11.170;2024-01-15T02:32:23;-1.90;99.90
13409;DHT22;6775;49.574;11.170;2024-01-15T02:34:51;-1.80;99.90
13409;DHT22;6775;49.574;11.170;2024-01-15T02:37:19;-1.80;99.90
13409;DHT22;6775;49.574;11.170;2024-01-15T02:39:47;-1.80;99.90
13409;DHT22;6775;49.574;11.170;2024-01-15T02:42:17;-1.70;99.90
13409;DHT22;6775;49.574;11.170;2024-01-15T02:44:45;-1.70;99.90
13409;DHT22;6775;49.574;11.170;2024-01-15T02:47:15;-1.70;99.90
13409;DHT22;6775;49.574;11.170;2024-01-15T02:49:43;-1.70;99.90
13409;DHT22;6775;49.574;11.170;2024-01-15T02:52:11;-1.60;99.90
13409;DHT22;6775;49.574;11.170;2024-01-15T02:54:39;-1.60;99.90
13409;DHT22;6775;49.574;11.170;2024-01-15T02:57:08;-1.50;99.90
13409;DHT22;6775;49.574;11.170;2024-01-15T02:59:37;-1.30;99.90
13409;DHT22;6775;49.574;11.170;2024-01-15T03:02:05;-1.50;99.90
13409;DHT22;6775;49.574;11.170;2024-01-15T03:04:33;-1.50;99.90
13409;DHT22;6775;49.574;11.170;2024-01-15T03:07:02;-1.50;99.90
13409;DHT22;6775;49.574;11.170;2024-01-15T03:09:30;-1.50;99.90
13409;DHT22;6775;49.574;11.170;2024-01-15T03:11:58;-1.50;99.90
13409;DHT22;6775;49.574;11.170;2024-01-15T03:14:26;-1.50;99.90
13409;DHT22;6775;49.574;11.170;2024-01-15T03:16:56;-1.40;99.90
13409;DHT22;6775;49.574;11.170;2024-01-15T03:19:24;-1.40;99.90
13409;DHT22;6775;49.574;11.170;2024-01-15T03:21:52;-1.40;99.90
13409;DHT22;6775;49.574;11.170;2024-01-15T03:24:21;-1.40;99.90
13409;DHT22;6775;49.574;11.170;2024-01-15T03:26:50;-1.40;99.90
13409;DHT22;6775;49.574;11.170;2024-01-15T03:29:18;-1.40;99.90
13409;DHT22;6775;49.574;11.170;2024-01-15T03:31:46;-1.40;99.90
13409;DHT22;6775;49.574;11.170;2024-01-15T03:34:15;-1.40;99.90
13409;DHT22;6775;49.574;11.170;2024-01-15T03:36:44;-1.40;99.90
13409;DHT22;6775;49.574;11.170;2024-01-15T03:39:12;-1.40;99.90
13409;DHT22;6775;49.574;11.170;2024-01-15T03:41:40;-1.40;99.90
13409;DHT22;6775;49.574;11.170;2024-01-15T03:44:09;-1.40;99.90
13409;DHT22;6775;49.574;11.170;2024-01-15T03:46:37;-1.40;99.90
13409;DHT22;6775;49.574;11.170;2024-01-15T03:49:05;-1.20;99.90
13409;DHT22;6775;49.574;11.170;2024-01-15T03:51:34;-1.40;99.90
13409;DHT22;6775;49.574;11.170;2024-01-15T03:54:03;-1.30;99.90
13409;DHT22;6775;49.574;11.170;2024-01-15T03:56:31;-1.30;99.90
13409;DHT22;6775;49.574;11.170;2024-01-15T03:58:59;-1.30;99.90
13409;DHT22;6775;49.574;11.170;2024-01-15T04:01:27;-1.30;99.90
13409;DHT22;6775;49.574;11.170;2024-01-15T04:03:56;-1.30;99.90
13409;DHT22;6775;49.574;11.170;2024-01-15T04:06:24;-1.30;99.90
13409;DHT22;6775;49.574;11.170;2024-01-15T04:08:54;-1.30;99.90
13409;DHT22;6775;49.574;11.170;2024-01-15T04:11:22;-1.20;99.90
13409;DHT22;6775;49.574;11.170;2024-01-15T04:13:50;-1.20;99.90
13409;DHT22;6775;49.574;11.170;2024-01-15T04:16:18;-1.20;99.90
13409;DHT22;6775;49.574;11.170;2024-01-15T04:18:46;-1.20;99.90
13409;DHT22;6775;49.574;11.170;2024-01-15T04:21:17;-1.20;99.90
13409;DHT22;6775;49.574;11.170;2024-01-15T04:23:45;-1.20;99.90
13409;DHT22;6775;49.574;11.170;2024-01-15T04:26:15;-1.20;99.90
13409;DHT22;6775;49.574;11.170;2024-01-15T04:28:43;-1.20;99.90
13409;DHT22;6775;49.574;11.170;2024-01-15T04:31:21;-1.20;99.90
13409;DHT22;6775;49.574;11.170;2024-01-15T04:33:50;-1.20;99.90
13409;DHT22;6775;49.574;11.170;2024-01-15T04:36:18;-1.20;99.90
13409;DHT22;6775;49.574;11.170;2024-01-15T04:38:47;-1.20;99.90
13409;DHT22;6775;49.574;11.170;2024-01-15T04:41:16;-1.20;99.90
13409;DHT22;6775;49.574;11.170;2024-01-15T04:43:44;-1.20;99.90
13409;DHT22;6775;49.574;11.170;2024-01-15T04:46:14;-1.10;99.90
13409;DHT22;6775;49.574;11.170;2024-01-15T04:48:42;-1.10;99.90
13409;DHT22;6775;49.574;11.170;2024-01-15T04:51:10;-1.00;99.90
13409;DHT22;6775;49.574;11.170;2024-01-15T04:53:38;-1.00;99.90
13409;DHT22;6775;49.574;11.170;2024-01-15T04:56:07;-1.00;99.90
13409;DHT22;6775;49.574;11.170;2024-01-15T04:58:36;-1.00;99.90
13409;DHT22;6775;49.574;11.170;2024-01-15T05:01:04;-1.00;99.90
13409;DHT22;6775;49.574;11.170;2024-01-15T05:03:32;-0.90;99.90
13409;DHT22;6775;49.574;11.170;2024-01-15T05:06:01;-1.00;99.90
13409;DHT22;6775;49.574;11.170;2024-01-15T05:08:29;-1.00;99.90
13409;DHT22;6775;49.574;11.170;2024-01-15T05:10:57;-1.00;99.90
13409;DHT22;6775;49.574;11.170;2024-01-15T05:13:26;-1.00;99.90
13409;DHT22;6775;49.574;11.170;2024-01-15T05:15:56;-1.00;99.90
13409;DHT22;6775;49.574;11.170;2024-01-15T05:18:24;-1.00;99.90
13409;DHT22;6775;49.574;11.170;2024-01-15T05:20:52;-1.00;99.90
13409;DHT22;6775;49.574;11.170;2024-01-15T05:23:20;-0.90;99.90
13409;DHT22;6775;49.574;11.170;2024-01-15T05:25:48;-0.90;99.90
13409;DHT22;6775;49.574;11.170;2024-01-15T05:28:17;-0.90;99.90
13409;DHT22;6775;49.574;11.170;2024-01-15T05:30:45;-1.00;99.90
13409;DHT22;6775;49.574;11.170;2024-01-15T05:33:14;-1.00;99.90
13409;DHT22;6775;49.574;11.170;2024-01-15T05:35:43;-1.00;99.90
13409;DHT22;6775;49.574;11.170;2024-01-15T05:38:11;-1.00;99.90
13409;DHT22;6775;49.574;11.170;2024-01-15T05:40:40;-1.00;99.90
13409;DHT22;6775;49.574;11.170;2024-01-15T05:43:08;-0.90;99.90
13409;DHT22;6775;49.574;11.170;2024-01-15T05:45:38;-0.90;99.90
13409;DHT22;6775;49.574;11.170;2024-01-15T05:48:10;-0.90;99.90
13409;DHT22;6775;49.574;11.170;2024-01-15T05:50:41;-1.00;99.90
13409;DHT22;6775;49.574;11.170;2024-01-15T05:53:10;-0.90;99.90
13409;DHT22;6775;49.574;11.170;2024-01-15T05:55:38;-0.90;99.90
13409;DHT22;6775;49.574;11.170;2024-01-15T05:58:06;-0.90;99.90
13409;DHT22;6775;49.574;11.170;2024-01-15T06:00:34;-0.90;99.90
13409;DHT22;6775;49.574;11.170;2024-01-15T06:03:06;-0.90;99.90
13409;DHT22;6775;49.574;11.170;2024-01-15T06:05:33;-0.90;99.90
13409;DHT22;6775;49.574;11.170;2024-01-15T06:08:03;-0.80;99.90
13409;DHT22;6775;49.574;11.170;2024-01-15T06:10:31;-0.80;99.90
13409;DHT22;6775;49.574;11.170;2024-01-15T06:12:59;-0.80;99.90
13409;DHT22;6775;49.574;11.170;2024-01-15T06:15:27;-0.80;99.90
13409;DHT22;6775;49.574;11.170;2024-01-15T06:17:55;-0.80;99.90
13409;DHT22;6775;49.574;11.170;2024-01-15T06:20:23;-0.80;99.90
13409;DHT22;6775;49.574;11.170;2024-01-15T06:22:51;-0.90;99.90
13409;DHT22;6775;49.574;11.170;2024-01-15T06:25:21;-0.90;99.90
13409;DHT22;6775;49.574;11.170;2024-01-15T06:27:49;-0.80;99.90
13409;DHT22;6775;49.574;11.170;2024-01-15T06:30:18;-0.80;99.90
13409;DHT22;6775;49.574;11.170;2024-01-15T06:32:46;-0.80;99.90
13409;DHT22;6775;49.574;11.170;2024-01-15T06:35:14;-0.80;99.90
13409;DHT22;6775;49.574;11.170;2024-01-15T06:37:45;-0.80;99.90
13409;DHT22;6775;49.574;11.170;2024-01-15T06:40:13;-0.80;99.90
13409;DHT22;6775;49.574;11.170;2024-01-15T06:42:43;-0.80;99.90
13409;DHT22;6775;49.574;11.170;2024-01-15T06:45:11;-0.90;99.90
13409;DHT22;6775;49.574;11.170;2024-01-15T06:47:39;-0.80;99.90
13409;DHT22;6775;49.574;11.170;2024-01-15T06:50:09;-0.90;99.90
13409;DHT22;6775;49.574;11.170;2024-01-15T06:52:37;-0.90;99.90
13409;DHT22;6775;49.574;11.170;2024-01-15T06:55:06;-0.80;99.90
13409;DHT22;6775;49.574;11.170;2024-01-15T06:57:34;-0.80;99.90
13409;DHT22;6775;49.574;11.170;2024-01-15T07:00:05;-0.80;99.90
13409;DHT22;6775;49.574;11.170;2024-01-15T07:02:35;-0.90;99.90
13409;DHT22;6775;49.574;11.170;2024-01-15T07:05:04;-0.80;99.90
13409;DHT22;6775;49.574;11.170;2024-01-15T07:07:33;-0.80;99.90
13409;DHT22;6775;49.574;11.170;2024-01-15T07:10:01;-0.80;99.90
13409;DHT22;6775;49.574;11.170;2024-01-15T07:12:30;-0.80;99.90
13409;DHT22;6775;49.574;11.170;2024-01-15T07:14:58;-0.80;99.90
13409;DHT22;6775;49.574;11.170;2024-01-15T07:17:28;-0.80;99.90
13409;DHT22;6775;49.574;11.170;2024-01-15T07:19:56;-0.70;99.90
13409;DHT22;6775;49.574;11.170;2024-01-15T07:22:24;-0.70;99.90
13409;DHT22;6775;49.574;11.170;2024-01-15T07:24:52;-0.60;99.90
13409;DHT22;6775;49.574;11.170;2024-01-15T07:27:21;-0.60;99.90
13409;DHT22;6775;49.574;11.170;2024-01-15T07:29:49;-0.60;99.90
13409;DHT22;6775;49.574;11.170;2024-01-15T07:32:18;-0.60;99.90
13409;DHT22;6775;49.574;11.170;2024-01-15T07:34:48;-0.60;99.90
13409;DHT22;6775;49.574;11.170;2024-01-15T07:37:17;-0.60;99.90
13409;DHT22;6775;49.574;11.170;2024-01-15T07:39:45;-0.70;99.90
13409;DHT22;6775;49.574;11.170;2024-01-15T07:42:13;-0.70;99.90
13409;DHT22;6775;49.574;11.170;2024-01-15T07:44:41;-0.70;99.90
13409;DHT22;6775;49.574;11.170;2024-01-15T07:47:09;-0.70;99.90
13409;DHT22;6775;49.574;11.170;2024-01-15T07:49:38;-0.70;99.90
13409;DHT22;6775;49.574;11.170;2024-01-15T07:52:08;-0.50;99.90
13409;DHT22;6775;49.574;11.170;2024-01-15T07:54:36;-0.70;99.90
13409;DHT22;6775;49.574;11.170;2024-01-15T07:57:05;-0.70;99.90
13409;DHT22;6775;49.574;11.170;2024-01-15T07:59:33;-0.70;99.90
13409;DHT22;6775;49.574;11.170;2024-01-15T08:02:03;-0.70;99.90
13409;DHT22;6775;49.574;11.170;2024-01-15T08:04:31;-0.70;99.90
13409;DHT22;6775;49.574;11.170;2024-01-15T08:06:59;-0.60;99.90
13409;DHT22;6775;49.574;11.170;2024-01-15T08:09:28;-0.70;99.90
13409;DHT22;6775;49.574;11.170;2024-01-15T08:11:57;-0.60;99.90
13409;DHT22;6775;49.574;11.170;2024-01-15T08:14:25;-0.50;99.90
13409;DHT22;6775;49.574;11.170;2024-01-15T08:16:53;-0.60;99.90
13409;DHT22;6775;49.574;11.170;2024-01-15T08:19:21;-0.60;99.90
13409;DHT22;6775;49.574;11.170;2024-01-15T08:21:49;-0.50;99.90
13409;DHT22;6775;49.574;11.170;2024-01-15T08:24:18;-0.50;99.90
13409;DHT22;6775;49.574;11.170;2024-01-15T08:26:47;-0.50;99.90
13409;DHT22;6775;49.574;11.170;2024-01-15T08:29:15;-0.50;99.90
13409;DHT22;6775;49.574;11.170;2024-01-15T08:31:45;-0.50;99.90
13409;DHT22;6775;49.574;11.170;2024-01-15T08:34:13;-0.40;99.90
13409;DHT22;6775;49.574;11.170;2024-01-15T08:36:42;-0.40;99.90
13409;DHT22;6775;49.574;11.170;2024-01-15T08:39:10;-0.30;99.90
13409;DHT22;6775;49.574;11.170;2024-01-15T08:41:38;-0.30;99.90
13409;DHT22;6775;49.574;11.170;2024-01-15T08:44:08;-0.30;99.90
13409;DHT22;6775;49.574;11.170;2024-01-15T08:46:36;-0.30;99.90
13409;DHT22;6775;49.574;11.170;2024-01-15T08:49:04;-0.20;99.90
13409;DHT22;6775;49.574;11.170;2024-01-15T08:51:32;-0.30;99.90
13409;DHT22;6775;49.574;11.170;2024-01-15T08:54:01;-0.30;99.90
13409;DHT22;6775;49.574;11.170;2024-01-15T08:56:29;-0.30;99.90
13409;DHT22;6775;49.574;11.170;2024-01-15T08:58:57;-0.20;99.90
13409;DHT22;6775;49.574;11.170;2024-01-15T09:01:26;-0.20;99.90
13409;DHT22;6775;49.574;11.170;2024-01-15T09:03:55;-0.20;99.90
13409;DHT22;6775;49.574;11.170;2024-01-15T09:06:23;-0.20;99.90
13409;DHT22;6775;49.574;11.170;2024-01-15T09:08:51;-0.10;99.90
13409;DHT22;6775;49.574;11.170;2024-01-15T09:11:20;-0.10;99.90
13409;DHT22;6775;49.574;11.170;2024-01-15T09:13:48;-0.10;99.90
13409;DHT22;6775;49.574;11.170;2024-01-15T09:16:16;-0.10;99.90
13409;DHT22;6775;49.574;11.170;2024-01-15T09:18:45;-0.10;99.90
13409;DHT22;6775;49.574;11.170;2024-01-15T09:21:14;-0.10;99.90
13409;DHT22;6775;49.574;11.170;2024-01-15T09:23:42;-0.10;99.90
13409;DHT22;6775;49.574;11.170;2024-01-15T09:26:10;0.00;99.90
13409;DHT22;6775;49.574;11.170;2024-01-15T09:28:39;0.10;99.90
13409;DHT22;6775;49.574;11.170;2024-01-15T09:31:07;0.20;99.90
13409;DHT22;6775;49.574;11.170;2024-01-15T09:33:35;0.60;99.90
13409;DHT22;6775;49.574;11.170;2024-01-15T09:36:06;0.30;99.90
13409;DHT22;6775;49.574;11.170;2024-01-15T09:38:34;0.40;99.90
13409;DHT22;6775;49.574;11.170;2024-01-15T09:41:03;0.40;99.90
13409;DHT22;6775;49.574;11.170;2024-01-15T09:43:32;0.40;99.90
13409;DHT22;6775;49.574;11.170;2024-01-15T09:46:01;0.40;99.90
13409;DHT22;6775;49.574;11.170;2024-01-15T09:48:30;0.40;99.90
13409;DHT22;6775;49.574;11.170;2024-01-15T09:51:01;0.30;99.90
13409;DHT22;6775;49.574;11.170;2024-01-15T09:53:32;0.30;99.90
13409;DHT22;6775;49.574;11.170;2024-01-15T09:56:01;0.30;99.90
13409;DHT22;6775;49.574;11.170;2024-01-15T09:58:29;0.30;99.90
13409;DHT22;6775;49.574;11.170;2024-01-15T10:00:59;0.30;99.90
13409;DHT22;6775;49.574;11.170;2024-01-15T10:03:34;0.30;99.90
13409;DHT22;6775;49.574;11.170;2024-01-15T10:06:03;0.40;99.90
13409;DHT22;6775;49.574;11.170;2024-01-15T10:08:34;0.30;99.90
13409;DHT22;6775;49.574;11.170;2024-01-15T10:11:04;0.40;99.90
13409;DHT22;6775;49.574;11.170;2024-01-15T10:13:33;0.40;99.90
13409;DHT22;6775;49.574;11.170;2024-01-15T10:16:02;0.40;99.90
13409;DHT22;6775;49.574;11.170;2024-01-15T10:18:30;0.30;99.90
13409;DHT22;6775;49.574;11.170;2024-01-15T10:20:59;0.50;99.90
13409;DHT22;6775;49.574;11.170;2024-01-15T10:23:28;0.40;99.90
13409;DHT22;6775;49.574;11.170;2024-01-15T10:25:58;0.40;99.90
13409;DHT22;6775;49.574;11.170;2024-01-15T10:28:26;0.50;99.90
13409;DHT22;6775;49.574;11.170;2024-01-15T10:30:57;0.40;99.90
13409;DHT22;6775;49.574;11.170;2024-01-15T10:33:27;0.50;99.90
13409;DHT22;6775;49.574;11.170;2024-01-15T10:35:58;0.50;99.90
13409;DHT22;6775;49.574;11.170;2024-01-15T10:38:27;0.70;99.90
13409;DHT22;6775;49.574;11.170;2024-01-15T10:40:57;0.50;99.90
13409;DHT22;6775;49.574;11.170;2024-01-15T10:43:25;0.90;99.90
13409;DHT22;6775;49.574;11.170;2024-01-15T10:45:55;0.60;99.90
13409;DHT22;6775;49.574;11.170;2024-01-15T10:48:24;0.60;99.90
13409;DHT22;6775;49.574;11.170;2024-01-15T10:50:56;0.60;99.90
13409;DHT22;6775;49.574;11.170;2024-01-15T10:53:24;0.60;99.90
13409;DHT22;6775;49.574;11.170;2024-01-15T10:55:52;0.60;99.90
13409;DHT22;6775;49.574;11.170;2024-01-15T10:58:23;0.70;99.90
13409;DHT22;6775;49.574;11.170;2024-01-15T11:00:52;0.60;99.90
13409;DHT22;6775;49.574;11.170;2024-01-15T11:03:21;0.70;99.90
13409;DHT22;6775;49.574;11.170;2024-01-15T11:05:50;0.60;99.90
13409;DHT22;6775;49.574;11.170;2024-01-15T11:08:18;0.70;99.90
13409;DHT22;6775;49.574;11.170;2024-01-15T11:10:47;0.50;99.90
13409;DHT22;6775;49.574;11.170;2024-01-15T11:13:21;0.50;99.90
13409;DHT22;6775;49.574;11.170;2024-01-15T11:15:55;0.50;99.90
13409;DHT22;6775;49.574;11.170;2024-01-15T11:18:23;0.80;99.90
13409;DHT22;6775;49.574;11.170;2024-01-15T11:21:22;0.60;99.90
13409;DHT22;6775;49.574;11.170;2024-01-15T11:23:54;0.60;99.90
13409;DHT22;6775;49.574;11.170;2024-01-15T11:26:32;0.80;99.90
13409;DHT22;6775;49.574;11.170;2024-01-15T11:29:05;0.70;99.90
13409;DHT22;6775;49.574;11.170;2024-01-15T11:31:56;0.70;99.90
13409;DHT22;6775;49.574;11.170;2024-01-15T11:34:56;0.70;99.90
13409;DHT22;6775;49.574;11.170;2024-01-15T11:37:28;0.80;99.90
13409;DHT22;6775;49.574;11.170;2024-01-15T11:40:01;0.80;99.90
13409;DHT22;6775;49.574;11.170;2024-01-15T11:42:31;0.90;99.90
13409;DHT22;6775;49.574;11.170;2024-01-15T11:45:01;1.00;99.90
13409;DHT22;6775;49.574;11.170;2024-01-15T11:48:11;0.80;99.90
13409;DHT22;6775;49.574;11.170;2024-01-15T11:50:43;0.80;99.90
13409;DHT22;6775;49.574;11.170;2024-01-15T11:53:27;0.80;99.90
13409;DHT22;6775;49.574;11.170;2024-01-15T11:56:03;0.80;99.90
13409;DHT22;6775;49.574;11.170;2024-01-15T11:58:34;0.80;99.90
13409;DHT22;6775;49.574;11.170;2024-01-15T12:01:05;0.80;99.90
13409;DHT22;6775;49.574;11.170;2024-01-15T12:03:33;0.80;99.90
13409;DHT22;6775;49.574;11.170;2024-01-15T12:06:02;1.00;99.90
13409;DHT22;6775;49.574;11.170;2024-01-15T12:08:33;0.80;99.90
13409;DHT22;6775;49.574;11.170;2024-01-15T12:11:06;0.90;99.90
13409;DHT22;6775;49.574;11.170;2024-01-15T12:13:36;0.80;99.90
13409;DHT22;6775;49.574;11.170;2024-01-15T12:16:06;1.00;99.90
13409;DHT22;6775;49.574;11.170;2024-01-15T12:18:34;0.90;99.90
13409;DHT22;6775;49.574;11.170;2024-01-15T12:21:04;1.20;99.90
13409;DHT22;6775;49.574;11.170;2024-01-15T12:23:33;0.80;99.90
13409;DHT22;6775;49.574;11.170;2024-01-15T12:26:02;0.80;99.90
13409;DHT22;6775;49.574;11.170;2024-01-15T12:28:30;0.70;99.90
13409;DHT22;6775;49.574;11.170;2024-01-15T12:30:59;0.70;99.90
13409;DHT22;6775;49.574;11.170;2024-01-15T12:33:33;0.90;99.90
13409;DHT22;6775;49.574;11.170;2024-01-15T12:36:01;0.60;99.90
13409;DHT22;6775;49.574;11.170;2024-01-15T12:38:31;0.60;99.90
13409;DHT22;6775;49.574;11.170;2024-01-15T12:41:00;0.60;99.90
13409;DHT22;6775;49.574;11.170;2024-01-15T12:43:28;0.60;99.90
13409;DHT22;6775;49.574;11.170;2024-01-15T12:45:57;0.60;99.90
13409;DHT22;6775;49.574;11.170;2024-01-15T12:48:25;0.60;99.90
13409;DHT22;6775;49.574;11.170;2024-01-15T12:50:55;0.70;99.90
13409;DHT22;6775;49.574;11.170;2024-01-15T12:53:23;0.70;99.90
13409;DHT22;6775;49.574;11.170;2024-01-15T12:55:51;0.70;99.90
13409;DHT22;6775;49.574;11.170;2024-01-15T12:58:20;0.80;99.90
13409;DHT22;6775;49.574;11.170;2024-01-15T13:00:48;0.90;99.90
13409;DHT22;6775;49.574;11.170;2024-01-15T13:03:16;0.80;99.90
13409;DHT22;6775;49.574;11.170;2024-01-15T13:05:45;1.00;99.90
13409;DHT22;6775;49.574;11.170;2024-01-15T13:08:14;0.80;99.90
13409;DHT22;6775;49.574;11.170;2024-01-15T13:10:43;0.80;99.90
13409;DHT22;6775;49.574;11.170;2024-01-15T13:13:11;0.80;99.90
13409;DHT22;6775;49.574;11.170;2024-01-15T13:15:39;0.80;99.90
13409;DHT22;6775;49.574;11.170;2024-01-15T13:18:08;0.80;99.90
13409;DHT22;6775;49.574;11.170;2024-01-15T13:20:37;0.80;99.90
13409;DHT22;6775;49.574;11.170;2024-01-15T13:23:05;0.80;99.90
13409;DHT22;6775;49.574;11.170;2024-01-15T13:25:35;0.80;99.90
13409;DHT22;6775;49.574;11.170;2024-01-15T13:28:06;0.70;99.90
13409;DHT22;6775;49.574;11.170;2024-01-15T13:30:34;0.70;99.90
13409;DHT22;6775;49.574;11.170;2024-01-15T13:33:03;0.70;99.90
13409;DHT22;6775;49.574;11.170;2024-01-15T13:35:32;0.70;99.90
13409;DHT22;6775;49.574;11.170;2024-01-15T13:38:00;0.70;99.90
13409;DHT22;6775;49.574;11.170;2024-01-15T13:40:28;0.70;99.90
13409;DHT22;6775;49.574;11.170;2024-01-15T13:42:57;0.70;99.90
13409;DHT22;6775;49.574;11.170;2024-01-15T13:45:26;0.80;99.90
13409;DHT22;6775;49.574;11.170;2024-01-15T13:47:54;0.80;99.90
13409;DHT22;6775;49.574;11.170;2024-01-15T13:50:22;0.70;99.90
13409;DHT22;6775;49.574;11.170;2024-01-15T13:52:51;0.70;99.90
13409;DHT22;6775;49.574;11.170;2024-01-15T13:55:20;0.70;99.90
13409;DHT22;6775;49.574;11.170;2024-01-15T13:57:48;0.70;99.90
13409;DHT22;6775;49.574;11.170;2024-01-15T14:00:18;0.70;99.90
13409;DHT22;6775;49.574;11.170;2024-01-15T14:02:47;0.80;99.90
13409;DHT22;6775;49.574;11.170;2024-01-15T14:05:15;0.70;99.90
13409;DHT22;6775;49.574;11.170;2024-01-15T14:07:43;0.70;99.90
13409;DHT22;6775;49.574;11.170;2024-01-15T14:10:11;0.70;99.90
13409;DHT22;6775;49.574;11.170;2024-01-15T14:12:40;0.70;99.90
13409;DHT22;6775;49.574;11.170;2024-01-15T14:15:08;0.80;99.90
13409;DHT22;6775;49.574;11.170;2024-01-15T14:17:38;0.60;99.90
13409;DHT22;6775;49.574;11.170;2024-01-15T14:20:08;0.60;99.90
13409;DHT22;6775;49.574;11.170;2024-01-15T14:22:37;0.60;99.90
13409;DHT22;6775;49.574;11.170;2024-01-15T14:25:05;0.70;99.90
13409;DHT22;6775;49.574;11.170;2024-01-15T14:27:34;0.60;99.90
13409;DHT22;6775;49.574;11.170;2024-01-15T14:30:03;0.60;99.90
13409;DHT22;6775;49.574;11.170;2024-01-15T14:32:35;0.60;99.90
13409;DHT22;6775;49.574;11.170;2024-01-15T14:35:05;0.70;99.90
13409;DHT22;6775;49.574;11.170;2024-01-15T14:37:35;0.70;99.90
13409;DHT22;6775;49.574;11.170;2024-01-15T14:40:03;0.70;99.90
13409;DHT22;6775;49.574;11.170;2024-01-15T14:42:34;0.70;99.90
13409;DHT22;6775;49.574;11.170;2024-01-15T14:45:03;0.70;99.90
13409;DHT22;6775;49.574;11.170;2024-01-15T14:47:38;0.70;99.90
13409;DHT22;6775;49.574;11.170;2024-01-15T14:50:09;0.60;99.90
13409;DHT22;6775;49.574;11.170;2024-01-15T14:52:39;0.60;99.90
13409;DHT22;6775;49.574;11.170;2024-01-15T14:55:08;0.80;99.90
13409;DHT22;6775;49.574;11.170;2024-01-15T14:57:37;0.50;99.90
13409;DHT22;6775;49.574;11.170;2024-01-15T15:00:06;0.50;99.90
13409;DHT22;6775;49.574;11.170;2024-01-15T15:02:36;0.40;99.90
13409;DHT22;6775;49.574;11.170;2024-01-15T15:05:05;0.50;99.90
13409;DHT22;6775;49.574;11.170;2024-01-15T15:07:35;0.40;99.90
13409;DHT22;6775;49.574;11.170;2024-01-15T15:10:05;0.60;99.90
13409;DHT22;6775;49.574;11.170;2024-01-15T15:12:34;0.40;99.90
13409;DHT22;6775;49.574;11.170;2024-01-15T15:15:02;0.40;99.90
13409;DHT22;6775;49.574;11.170;2024-01-15T15:17:37;0.40;99.90
13409;DHT22;6775;49.574;11.170;2024-01-15T15:20:06;0.40;99.90
13409;DHT22;6775;49.574;11.170;2024-01-15T15:22:37;0.40;99.90
13409;DHT22;6775;49.574;11.170;2024-01-15T15:25:05;0.30;99.90
13409;DHT22;6775;49.574;11.170;2024-01-15T15:27:36;0.30;99.90
13409;DHT22;6775;49.574;11.170;2024-01-15T15:30:05;0.30;99.90
13409;DHT22;6775;49.574;11.170;2024-01-15T15:32:34;0.30;99.90
13409;DHT22;6775;49.574;11.170;2024-01-15T15:35:03;0.30;99.90
13409;DHT22;6775;49.574;11.170;2024-01-15T15:37:31;0.30;99.90
13409;DHT22;6775;49.574;11.170;2024-01-15T15:40:01;0.30;99.90
13409;DHT22;6775;49.574;11.170;2024-01-15T15:42:30;0.30;99.90
13409;DHT22;6775;49.574;11.170;2024-01-15T15:44:58;0.40;99.90
13409;DHT22;6775;49.574;11.170;2024-01-15T15:47:28;0.20;99.90
13409;DHT22;6775;49.574;11.170;2024-01-15T15:49:57;0.20;99.90